San Andres de Giles, Argentina
Current Conditions -  °F | °C
As of 1:00 AM on Thursday 29 Jan 2015 (Local Time) from SADF Reporting Station
Clear Clear  
Wind Chill: 64°   Ceiling: Unl
Heat Index: 64°   Visibility: 6mi
Dew Point: 59°   Wind: 8mph
Humidity: 83%   Direction: 140°SE
Pressure: 29.97"   Gusts: NA
Location:  34.45°S, 59.45°W
Report Text: SADF 290400Z 14007KT CAVOK 18/15 Q1015
Loading
Personal Weather Stations






























Interactive Weather Map New forecast layout! Learn more

10-Day Weather Forecast

Advertisements
Track Severe Weather on mobile